Time;durP1;ratioP1;P1;durP2;ratioP2;P2;SDS_P1;SDS_P2;PMS_P1;PMS_P2;Temp;Humidity;BMP_temperature;BMP_pressure;BME280_temperature;BME280_humidity;BME280_pressure;Samples;Min_cycle;Max_cycle;Signal;HPM_P1;HPM_P2
2022/02/02 00:00:38;;;;;;;15.97;3.63;;;;;;;;;;5073679;28;20761;-73
2022/02/02 00:03:09;;;;;;;13.13;4.57;;;;;;;;;;5057759;28;20461;-73
2022/02/02 00:05:49;;;;;;;19.60;5.27;;;;;;;;;;5070894;28;20469;-74
2022/02/02 00:08:22;;;;;;;14.43;4.80;;;;;;;;;;5076795;28;20464;-73
2022/02/02 00:13:58;;;;;;;26.70;4.00;;;;;;;;;;5056549;28;20751;-74
2022/02/02 00:16:45;;;;;;;13.67;3.40;;;;;;;;;;5065922;28;20461;-73
2022/02/02 00:19:17;;;;;;;20.20;5.20;;;;;;;;;;5057593;28;20477;-73
2022/02/02 00:21:51;;;;;;;27.37;3.90;;;;;;;;;;5056409;28;20495;-74
2022/02/02 00:24:28;;;;;;;23.93;3.93;;;;;;;;;;5065519;28;20451;-73
2022/02/02 00:27:02;;;;;;;22.43;4.57;;;;;;;;;;5077196;28;20455;-73
2022/02/02 00:29:40;;;;;;;21.60;5.17;;;;;;;;;;5060338;28;20455;-73
2022/02/02 00:32:16;;;;;;;28.23;5.97;;;;;;;;;;5056559;28;20501;-73
2022/02/02 00:34:44;;;;;;;11.43;2.87;;;;;;;;;;5066789;28;20476;-72
2022/02/02 00:37:14;;;;;;;39.57;5.27;;;;;;;;;;5073532;28;20486;-73
2022/02/02 00:39:46;;;;;;;20.30;4.10;;;;;;;;;;5059067;28;20456;-73
2022/02/02 00:42:14;;;;;;;22.17;5.90;;;;;;;;;;5063830;28;20556;-73
2022/02/02 00:44:48;;;;;;;27.30;6.57;;;;;;;;;;5077051;28;20598;-73
2022/02/02 00:47:21;;;;;;;20.07;6.57;;;;;;;;;;5077233;28;20548;-73
2022/02/02 00:49:49;;;;;;;21.87;4.17;;;;;;;;;;5077352;28;20456;-73
2022/02/02 00:52:18;;;;;;;11.90;5.30;;;;;;;;;;5076651;28;20492;-73
2022/02/02 00:54:47;;;;;;;21.73;7.73;;;;;;;;;;5074218;28;20484;-74
2022/02/02 00:57:17;;;;;;;23.57;5.77;;;;;;;;;;5076721;28;20539;-72
2022/02/02 00:59:48;;;;;;;11.80;4.63;;;;;;;;;;5077930;28;20789;-72
2022/02/02 01:02:18;;;;;;;27.57;5.10;;;;;;;;;;5077103;28;20451;-73
2022/02/02 01:04:47;;;;;;;19.00;5.40;;;;;;;;;;5077352;28;20460;-72
2022/02/02 01:07:31;;;;;;;32.00;6.10;;;;;;;;;;5077878;28;20492;-72
2022/02/02 01:10:21;;;;;;;23.27;6.03;;;;;;;;;;5077052;28;20456;-72
2022/02/02 01:13:20;;;;;;;18.73;4.03;;;;;;;;;;5077186;28;20453;-73
2022/02/02 01:22:15;;;;;;;23.87;13.20;;;;;;;;;;5027223;28;20577;-73
2022/02/02 01:27:53;;;;;;;14.30;3.23;;;;;;;;;;5056969;28;20437;-73
2022/02/02 01:30:41;;;;;;;12.47;4.73;;;;;;;;;;5057159;28;20472;-73
2022/02/02 01:35:54;;;;;;;17.70;5.40;;;;;;;;;;5058535;28;20949;-73
2022/02/02 01:39:13;;;;;;;23.23;3.93;;;;;;;;;;5060477;28;20485;-73
2022/02/02 01:53:40;;;;;;;18.43;5.40;;;;;;;;;;5072596;28;20869;-74
2022/02/02 01:56:11;;;;;;;21.63;4.40;;;;;;;;;;5080045;28;20606;-74
2022/02/02 01:58:52;;;;;;;20.80;4.63;;;;;;;;;;5079416;28;20540;-74
2022/02/02 02:01:21;;;;;;;34.17;6.90;;;;;;;;;;5079217;28;20456;-73
2022/02/02 02:03:49;;;;;;;15.30;3.67;;;;;;;;;;5073652;28;20744;-74
2022/02/02 02:06:18;;;;;;;11.30;5.20;;;;;;;;;;5066524;28;20933;-74
2022/02/02 02:08:45;;;;;;;17.53;4.13;;;;;;;;;;5059653;28;20457;-73
2022/02/02 02:20:26;;;;;;;15.30;3.73;;;;;;;;;;5059605;28;20747;-73
2022/02/02 02:23:02;;;;;;;16.30;3.63;;;;;;;;;;5059415;28;20496;-73
2022/02/02 02:25:37;;;;;;;9.03;2.93;;;;;;;;;;5058799;28;20456;-72
2022/02/02 02:28:52;;;;;;;10.33;2.90;;;;;;;;;;5059538;28;20876;-73
2022/02/02 02:31:38;;;;;;;9.57;2.10;;;;;;;;;;5058200;28;20446;-73
2022/02/02 02:34:23;;;;;;;13.00;3.10;;;;;;;;;;5058518;28;20515;-72
2022/02/02 02:37:31;;;;;;;24.70;3.87;;;;;;;;;;5067946;28;20484;-74
2022/02/02 02:40:18;;;;;;;14.93;3.47;;;;;;;;;;5058744;28;20445;-73
2022/02/02 02:56:41;;;;;;;24.73;3.50;;;;;;;;;;5070643;28;20471;-73
2022/02/02 02:59:13;;;;;;;11.23;2.80;;;;;;;;;;5077556;28;20458;-73
2022/02/02 03:02:13;;;;;;;15.27;4.33;;;;;;;;;;5072204;28;20894;-72
2022/02/02 03:29:55;;;;;;;11.90;2.93;;;;;;;;;;5056810;28;20480;-73
2022/02/02 03:32:53;;;;;;;14.13;2.80;;;;;;;;;;5058006;28;20851;-73
2022/02/02 03:49:16;;;;;;;12.50;3.10;;;;;;;;;;5057667;28;20512;-73
2022/02/02 03:54:59;;;;;;;17.10;3.93;;;;;;;;;;5076591;28;20421;-73
2022/02/02 03:57:35;;;;;;;12.10;3.70;;;;;;;;;;5075678;28;20476;-74
2022/02/02 04:00:40;;;;;;;8.50;4.00;;;;;;;;;;5076713;28;20942;-73
2022/02/02 04:06:11;;;;;;;12.97;3.33;;;;;;;;;;5014708;28;20485;-72
2022/02/02 04:08:39;;;;;;;17.43;4.40;;;;;;;;;;5013948;28;20607;-72
2022/02/02 04:11:15;;;;;;;11.43;2.43;;;;;;;;;;5034257;28;20465;-73
2022/02/02 04:55:46;;;;;;;16.67;3.03;;;;;;;;;;4980853;28;20479;-73
2022/02/02 04:58:24;;;;;;;15.97;2.80;;;;;;;;;;4995291;28;20873;-72
2022/02/02 05:01:34;;;;;;;9.37;3.03;;;;;;;;;;5040847;28;20506;-72
2022/02/02 05:06:38;;;;;;;11.47;2.70;;;;;;;;;;5052478;28;20425;-73
2022/02/02 05:09:24;;;;;;;14.50;3.20;;;;;;;;;;5071857;28;20447;-73
2022/02/02 05:12:34;;;;;;;17.93;3.70;;;;;;;;;;5060380;28;20544;-73
2022/02/02 05:18:13;;;;;;;24.27;3.93;;;;;;;;;;5073506;28;20504;-73
2022/02/02 05:49:36;;;;;;;7.10;2.13;;;;;;;;;;5133847;27;20548;-73
2022/02/02 05:52:04;;;;;;;10.87;2.93;;;;;;;;;;5132315;27;20777;-72
2022/02/02 05:54:31;;;;;;;10.73;2.20;;;;;;;;;;5139681;27;20911;-72
2022/02/02 05:57:01;;;;;;;14.00;2.40;;;;;;;;;;5142754;27;20455;-73
2022/02/02 05:59:32;;;;;;;12.20;4.87;;;;;;;;;;5133153;27;20734;-72
2022/02/02 06:02:01;;;;;;;16.03;4.03;;;;;;;;;;5142433;27;20501;-73
2022/02/02 06:04:32;;;;;;;12.47;3.00;;;;;;;;;;5143818;27;20897;-73
2022/02/02 06:07:04;;;;;;;14.87;4.17;;;;;;;;;;5149115;27;20908;-72
2022/02/02 06:09:48;;;;;;;8.23;2.30;;;;;;;;;;5133383;27;20456;-73
2022/02/02 06:12:20;;;;;;;13.50;3.03;;;;;;;;;;5134449;27;20549;-74
2022/02/02 06:14:50;;;;;;;10.77;2.03;;;;;;;;;;5124276;27;20450;-73
2022/02/02 06:17:20;;;;;;;15.00;2.60;;;;;;;;;;5134166;27;20472;-74
2022/02/02 06:19:47;;;;;;;7.53;1.80;;;;;;;;;;5116231;27;20909;-73
2022/02/02 06:22:17;;;;;;;15.77;3.00;;;;;;;;;;5111917;27;20743;-73
2022/02/02 06:24:54;;;;;;;6.67;1.90;;;;;;;;;;5113891;27;20925;-74
2022/02/02 06:27:50;;;;;;;9.00;2.13;;;;;;;;;;5113263;27;20437;-74
2022/02/02 06:30:19;;;;;;;11.70;3.20;;;;;;;;;;5124914;27;20502;-74
2022/02/02 06:33:01;;;;;;;15.33;2.70;;;;;;;;;;5113306;27;20454;-73
2022/02/02 06:35:43;;;;;;;8.70;2.07;;;;;;;;;;5112534;27;20928;-73
2022/02/02 06:38:10;;;;;;;6.23;2.33;;;;;;;;;;5131598;27;20830;-73
2022/02/02 06:40:37;;;;;;;4.63;1.43;;;;;;;;;;5132459;27;20474;-74
2022/02/02 06:43:06;;;;;;;5.90;1.50;;;;;;;;;;5128896;27;20610;-73
2022/02/02 06:45:37;;;;;;;9.90;2.10;;;;;;;;;;5128418;27;20469;-73
2022/02/02 06:48:12;;;;;;;6.93;1.60;;;;;;;;;;5148884;27;20727;-74
2022/02/02 06:50:52;;;;;;;10.70;2.97;;;;;;;;;;5130734;27;20441;-73
2022/02/02 06:53:29;;;;;;;19.23;2.20;;;;;;;;;;5130883;27;20456;-73
2022/02/02 06:56:15;;;;;;;11.77;3.73;;;;;;;;;;5135019;27;20548;-74
2022/02/02 06:58:58;;;;;;;11.40;2.40;;;;;;;;;;5137269;27;20917;-72
2022/02/02 07:01:39;;;;;;;4.70;1.20;;;;;;;;;;5136075;27;20485;-73
2022/02/02 07:04:19;;;;;;;10.87;1.83;;;;;;;;;;5137072;27;21065;-74
2022/02/02 07:06:55;;;;;;;5.53;2.00;;;;;;;;;;5132088;27;20446;-74
2022/02/02 07:09:36;;;;;;;10.23;2.37;;;;;;;;;;5116891;27;20511;-75
2022/02/02 07:12:12;;;;;;;10.03;3.07;;;;;;;;;;5115685;27;20439;-74
2022/02/02 07:15:01;;;;;;;9.00;2.00;;;;;;;;;;5117044;28;20443;-74
2022/02/02 07:17:49;;;;;;;10.20;2.80;;;;;;;;;;5126462;27;20462;-73
2022/02/02 07:20:36;;;;;;;8.47;1.93;;;;;;;;;;5135687;27;20492;-73
2022/02/02 07:23:25;;;;;;;5.67;1.90;;;;;;;;;;5135771;27;20728;-72
2022/02/02 07:26:20;;;;;;;7.80;1.60;;;;;;;;;;5111019;28;21159;-73
2022/02/02 07:28:58;;;;;;;21.60;3.30;;;;;;;;;;5110833;27;20851;-74
2022/02/02 07:31:37;;;;;;;10.93;2.20;;;;;;;;;;5102039;28;20752;-73
2022/02/02 07:34:13;;;;;;;6.70;2.07;;;;;;;;;;5116695;27;20533;-72
2022/02/02 07:36:44;;;;;;;7.73;1.73;;;;;;;;;;5116614;28;20451;-74
2022/02/02 07:39:13;;;;;;;7.73;2.90;;;;;;;;;;5116621;27;20458;-73
2022/02/02 07:41:48;;;;;;;8.10;2.13;;;;;;;;;;5116253;27;20882;-73
2022/02/02 07:44:18;;;;;;;21.47;3.80;;;;;;;;;;5090887;28;20520;-72
2022/02/02 07:46:47;;;;;;;13.63;4.33;;;;;;;;;;5112098;28;20503;-73
2022/02/02 07:49:17;;;;;;;9.00;3.77;;;;;;;;;;5102142;28;20469;-73
2022/02/02 07:51:49;;;;;;;11.90;2.47;;;;;;;;;;5115068;27;20463;-74
2022/02/02 07:54:25;;;;;;;8.30;2.10;;;;;;;;;;5116572;27;20777;-73
2022/02/02 07:56:57;;;;;;;5.53;1.83;;;;;;;;;;5116061;27;20454;-73
2022/02/02 07:59:35;;;;;;;8.77;2.50;;;;;;;;;;5115903;27;20753;-74
2022/02/02 08:02:05;;;;;;;9.73;3.00;;;;;;;;;;5115533;28;20449;-74
2022/02/02 08:04:37;;;;;;;9.67;2.43;;;;;;;;;;5115360;28;20505;-74
2022/02/02 08:07:20;;;;;;;13.90;1.80;;;;;;;;;;5116143;28;20492;-74
2022/02/02 08:09:58;;;;;;;17.80;3.90;;;;;;;;;;5107204;28;20489;-73
2022/02/02 08:12:33;;;;;;;10.17;2.40;;;;;;;;;;5114436;28;20522;-73
2022/02/02 08:15:04;;;;;;;11.70;2.10;;;;;;;;;;5114865;27;20458;-73
2022/02/02 08:17:33;;;;;;;9.97;2.17;;;;;;;;;;5101684;27;20466;-73
2022/02/02 08:20:00;;;;;;;14.10;2.00;;;;;;;;;;5096069;28;20560;-74
2022/02/02 08:22:31;;;;;;;189.30;75.33;;;;;;;;;;5106563;27;20936;-73
2022/02/02 08:25:03;;;;;;;6.27;1.20;;;;;;;;;;5095355;28;20977;-74
2022/02/02 08:27:39;;;;;;;10.37;2.77;;;;;;;;;;5105376;28;20451;-74
2022/02/02 08:30:24;;;;;;;13.93;3.23;;;;;;;;;;5110410;27;20459;-75
2022/02/02 08:32:57;;;;;;;7.60;1.93;;;;;;;;;;5118516;27;20882;-73
2022/02/02 08:35:26;;;;;;;7.53;2.57;;;;;;;;;;5116077;27;20462;-72
2022/02/02 08:38:02;;;;;;;15.07;3.33;;;;;;;;;;5115258;27;20728;-74
2022/02/02 08:40:33;;;;;;;8.50;2.83;;;;;;;;;;5114608;27;20446;-73
2022/02/02 08:43:07;;;;;;;10.33;2.33;;;;;;;;;;5108380;27;20452;-74
2022/02/02 08:45:36;;;;;;;6.83;2.10;;;;;;;;;;5095221;28;20568;-74
2022/02/02 08:48:07;;;;;;;12.27;2.57;;;;;;;;;;5095658;28;20879;-74
2022/02/02 08:50:45;;;;;;;6.77;2.20;;;;;;;;;;5110138;27;20489;-73
2022/02/02 08:53:28;;;;;;;11.07;3.17;;;;;;;;;;5114635;28;20446;-74
2022/02/02 08:59:21;;;;;;;8.73;1.40;;;;;;;;;;5132261;27;20775;-74
2022/02/02 09:01:55;;;;;;;6.30;1.73;;;;;;;;;;5136527;27;20457;-73
2022/02/02 09:07:10;;;;;;;9.77;1.93;;;;;;;;;;5102313;27;21062;-74
2022/02/02 09:09:58;;;;;;;8.17;3.90;;;;;;;;;;5120996;27;20455;-74
2022/02/02 09:23:44;;;;;;;11.17;2.40;;;;;;;;;;5103520;27;20473;-73
2022/02/02 09:31:23;;;;;;;10.23;2.20;;;;;;;;;;5116081;27;20572;-73
2022/02/02 09:32:34;;;;;;;5.63;2.27;;;;;;;;;;5136469;27;20445;-73
2022/02/02 09:35:07;;;;;;;13.97;2.40;;;;;;;;;;5136148;27;20462;-72
2022/02/02 09:43:27;;;;;;;8.07;2.43;;;;;;;;;;5071062;28;20578;-72
2022/02/02 09:46:05;;;;;;;19.07;2.60;;;;;;;;;;5125710;27;20482;-74
2022/02/02 09:48:46;;;;;;;6.43;1.90;;;;;;;;;;5111956;28;20441;-74
2022/02/02 09:51:23;;;;;;;17.07;3.30;;;;;;;;;;5124502;27;20465;-73
2022/02/02 09:53:58;;;;;;;10.37;2.70;;;;;;;;;;5102106;27;20965;-72
2022/02/02 09:56:47;;;;;;;10.67;2.23;;;;;;;;;;5111372;27;20453;-74
2022/02/02 09:59:27;;;;;;;2.73;2.33;;;;;;;;;;5136549;27;20464;-72
2022/02/02 10:05:10;;;;;;;6.20;1.70;;;;;;;;;;5076150;28;20746;-71
2022/02/02 10:08:08;;;;;;;16.23;2.93;;;;;;;;;;5125420;28;20518;-74
2022/02/02 10:13:25;;;;;;;17.23;2.80;;;;;;;;;;5110498;27;20427;-73
2022/02/02 10:15:55;;;;;;;11.10;2.27;;;;;;;;;;5100475;28;21045;-73
2022/02/02 10:18:38;;;;;;;20.57;2.97;;;;;;;;;;5131179;27;20997;-73
2022/02/02 10:21:31;;;;;;;12.53;2.57;;;;;;;;;;5113120;27;20557;-73
2022/02/02 10:24:02;;;;;;;5.97;1.30;;;;;;;;;;5102599;27;20846;-73
2022/02/02 10:26:34;;;;;;;9.00;1.80;;;;;;;;;;5134408;27;20481;-73
2022/02/02 10:29:07;;;;;;;9.73;2.17;;;;;;;;;;5122181;27;20549;-71
2022/02/02 10:31:47;;;;;;;25.83;2.70;;;;;;;;;;5114424;27;20466;-72
2022/02/02 10:34:18;;;;;;;8.97;2.03;;;;;;;;;;5099454;27;20462;-73
2022/02/02 10:37:14;;;;;;;11.30;2.07;;;;;;;;;;5108002;27;20546;-73
2022/02/02 10:39:46;;;;;;;21.50;2.57;;;;;;;;;;5111409;27;20741;-73
2022/02/02 10:42:14;;;;;;;9.03;2.67;;;;;;;;;;5112029;27;20502;-74
2022/02/02 10:44:45;;;;;;;13.13;3.87;;;;;;;;;;5102559;28;20516;-74
2022/02/02 10:47:20;;;;;;;6.33;1.73;;;;;;;;;;5108174;28;20455;-74
2022/02/02 10:50:09;;;;;;;12.33;2.60;;;;;;;;;;5101731;28;20873;-75
2022/02/02 10:52:55;;;;;;;13.10;2.63;;;;;;;;;;5095073;28;20467;-73
2022/02/02 10:55:55;;;;;;;8.17;2.27;;;;;;;;;;5098047;28;20463;-73
2022/02/02 10:58:30;;;;;;;10.17;2.00;;;;;;;;;;5113842;27;20461;-73
2022/02/02 11:01:20;;;;;;;8.67;2.33;;;;;;;;;;5111939;28;20548;-73
2022/02/02 11:06:41;;;;;;;14.27;1.90;;;;;;;;;;5116017;27;20469;-74
2022/02/02 11:09:09;;;;;;;10.30;1.57;;;;;;;;;;5117714;27;20514;-73
2022/02/02 11:11:41;;;;;;;3.40;2.00;;;;;;;;;;5116033;27;20821;-73
2022/02/02 11:14:28;;;;;;;14.00;2.83;;;;;;;;;;5115748;28;20584;-73
2022/02/02 11:17:10;;;;;;;5.17;2.13;;;;;;;;;;5116094;28;20883;-73
2022/02/02 11:19:42;;;;;;;9.20;1.60;;;;;;;;;;5112984;28;20447;-72
2022/02/02 11:25:36;;;;;;;10.80;2.63;;;;;;;;;;5062182;28;20463;-72
2022/02/02 11:28:05;;;;;;;13.80;1.93;;;;;;;;;;5086187;28;20451;-73
2022/02/02 11:30:43;;;;;;;6.40;2.70;;;;;;;;;;5115054;27;20459;-72
2022/02/02 11:33:28;;;;;;;11.30;2.10;;;;;;;;;;5116711;27;20505;-73
2022/02/02 11:36:25;;;;;;;5.67;1.63;;;;;;;;;;5118339;28;20455;-71
2022/02/02 11:39:11;;;;;;;7.63;2.50;;;;;;;;;;5117497;27;20486;-72
2022/02/02 11:41:52;;;;;;;11.67;1.80;;;;;;;;;;5116497;28;20459;-73
2022/02/02 11:44:25;;;;;;;8.80;1.77;;;;;;;;;;5112395;28;20898;-72
2022/02/02 11:47:19;;;;;;;9.30;2.03;;;;;;;;;;5116264;27;20513;-73
2022/02/02 11:49:55;;;;;;;10.73;2.00;;;;;;;;;;5107521;27;20523;-72
2022/02/02 11:52:42;;;;;;;6.30;1.63;;;;;;;;;;5116451;28;20884;-73
2022/02/02 11:55:35;;;;;;;60.27;18.07;;;;;;;;;;5107986;28;20492;-73
2022/02/02 12:04:21;;;;;;;18.90;1.77;;;;;;;;;;5079556;28;20728;-74
2022/02/02 12:07:03;;;;;;;80.13;62.20;;;;;;;;;;5096740;28;20495;-73
2022/02/02 12:09:54;;;;;;;14.50;9.93;;;;;;;;;;5095852;28;20454;-72
2022/02/02 12:47:58;;;;;;;6.97;3.37;;;;;;;;;;5100989;28;20945;-75
2022/02/02 12:56:28;;;;;;;18.33;13.20;;;;;;;;;;5051190;28;20481;-74
2022/02/02 13:02:10;;;;;;;353.60;110.23;;;;;;;;;;5088307;27;20453;-74
2022/02/02 13:04:51;;;;;;;9.57;6.00;;;;;;;;;;5104726;27;20461;-73
2022/02/02 13:10:20;;;;;;;4.80;1.67;;;;;;;;;;5110337;28;20439;-74
2022/02/02 13:12:53;;;;;;;10.43;1.50;;;;;;;;;;5113845;27;20537;-73
2022/02/02 13:15:29;;;;;;;3.13;1.40;;;;;;;;;;5125240;27;20456;-72
2022/02/02 13:18:06;;;;;;;14.87;8.33;;;;;;;;;;5135471;27;20461;-73
2022/02/02 13:20:43;;;;;;;2.87;1.07;;;;;;;;;;5114839;27;20459;-73
2022/02/02 13:23:16;;;;;;;4.30;1.40;;;;;;;;;;5124153;28;20863;-74
2022/02/02 13:25:50;;;;;;;5.60;1.63;;;;;;;;;;5095279;27;20475;-73
2022/02/02 13:28:31;;;;;;;2.03;0.90;;;;;;;;;;5118392;27;20497;-73
2022/02/02 13:30:59;;;;;;;45.17;41.17;;;;;;;;;;5123619;27;20444;-73
2022/02/02 13:33:37;;;;;;;4.93;1.93;;;;;;;;;;5101061;28;20744;-74
2022/02/02 13:36:29;;;;;;;33.83;30.07;;;;;;;;;;5117266;27;20463;-73
2022/02/02 13:44:54;;;;;;;37.30;33.73;;;;;;;;;;5116424;28;20462;-73
2022/02/02 13:56:45;;;;;;;9.27;3.60;;;;;;;;;;5104533;27;20483;-74
2022/02/02 13:59:59;;;;;;;6.43;3.00;;;;;;;;;;5115769;28;20457;-74
2022/02/02 14:06:20;;;;;;;13.97;12.03;;;;;;;;;;5125073;27;20477;-74
2022/02/02 15:30:53;;;;;;;187.43;83.03;;;;;;;;;;5121659;27;20445;-75
2022/02/02 15:33:27;;;;;;;323.45;101.22;;;;;;;;;;5119356;27;20812;-75
2022/02/02 15:36:15;;;;;;;4.50;1.33;;;;;;;;;;5120057;28;20208;-74
2022/02/02 15:38:47;;;;;;;9.87;1.90;;;;;;;;;;5119202;27;20502;-75
2022/02/02 15:41:27;;;;;;;6.73;3.93;;;;;;;;;;5117434;27;20474;-75
2022/02/02 15:44:57;;;;;;;5.40;1.00;;;;;;;;;;5115627;27;20450;-73
2022/02/02 15:55:32;;;;;;;9.57;2.10;;;;;;;;;;5108061;27;20531;-74
2022/02/02 16:03:46;;;;;;;12.10;10.37;;;;;;;;;;5092689;27;20204;-74
2022/02/02 16:06:19;;;;;;;139.03;89.13;;;;;;;;;;5128815;27;20632;-74
2022/02/02 16:09:00;;;;;;;349.65;118.88;;;;;;;;;;5112826;28;20450;-73
2022/02/02 16:11:40;;;;;;;81.03;65.57;;;;;;;;;;5115605;27;21047;-74
2022/02/02 16:14:21;;;;;;;72.27;61.93;;;;;;;;;;5118757;27;20813;-74
2022/02/02 16:17:13;;;;;;;14.50;12.73;;;;;;;;;;5115050;27;20552;-75
2022/02/02 16:31:32;;;;;;;60.73;52.20;;;;;;;;;;5103284;27;20480;-74
2022/02/02 16:36:52;;;;;;;172.53;90.77;;;;;;;;;;5117486;27;20907;-74
2022/02/02 16:39:44;;;;;;;;;;;;;;;;;;;;;
2022/02/02 16:45:05;;;;;;;6.40;3.10;;;;;;;;;;5115323;27;20673;-74
2022/02/02 16:47:53;;;;;;;7.97;4.87;;;;;;;;;;5102796;27;20485;-73
2022/02/02 16:50:34;;;;;;;10.83;5.60;;;;;;;;;;5106019;27;20561;-74
2022/02/02 16:53:22;;;;;;;10.40;4.70;;;;;;;;;;5098712;28;20455;-74
2022/02/02 16:56:03;;;;;;;8.80;2.87;;;;;;;;;;5108624;27;20465;-74
2022/02/02 17:30:22;;;;;;;3.53;1.80;;;;;;;;;;5111222;27;20443;-74
2022/02/02 17:32:55;;;;;;;7.10;3.17;;;;;;;;;;5102013;28;20556;-73
2022/02/02 17:35:49;;;;;;;335.38;110.05;;;;;;;;;;5108096;28;20494;-73
2022/02/02 17:42:04;;;;;;;13.63;5.60;;;;;;;;;;5056653;28;20441;-75
2022/02/02 17:56:30;;;;;;;10.50;3.40;;;;;;;;;;5096524;27;20725;-73
2022/02/02 18:22:42;;;;;;;10.90;2.00;;;;;;;;;;5028789;28;20454;-74
2022/02/02 18:25:32;;;;;;;14.63;3.03;;;;;;;;;;5085710;28;20548;-74
2022/02/02 18:49:05;;;;;;;12.23;1.77;;;;;;;;;;5097853;28;20486;-74
2022/02/02 18:54:58;;;;;;;59.90;46.77;;;;;;;;;;5119583;28;20423;-74
2022/02/02 18:58:09;;;;;;;61.03;45.07;;;;;;;;;;5120555;28;20535;-74
2022/02/02 19:01:23;;;;;;;109.80;59.23;;;;;;;;;;5120825;28;20876;-75
2022/02/02 19:07:12;;;;;;;64.53;46.33;;;;;;;;;;5119000;28;20635;-74
2022/02/02 20:36:13;;;;;;;;;;;;;;;;;;;;;
2022/02/02 20:42:26;;;;;;;25.40;9.27;;;;;;;;;;4937554;29;20439;-75
2022/02/02 21:15:37;;;;;;;;;;;;;;;;;;;;;
2022/02/02 21:27:39;;;;;;;18.40;5.77;;;;;;;;;;4999140;28;20549;-74
2022/02/02 21:30:42;;;;;;;;;;;;;;;;;;;;;
2022/02/02 21:33:14;;;;;;;12.10;4.80;;;;;;;;;;5074481;28;20436;-74
2022/02/02 21:35:58;;;;;;;12.40;3.93;;;;;;;;;;5087765;28;20468;-74
2022/02/02 21:38:39;;;;;;;17.67;4.37;;;;;;;;;;5117143;28;20463;-73
2022/02/02 21:41:24;;;;;;;14.70;5.43;;;;;;;;;;5117464;28;20572;-74
2022/02/02 21:44:26;;;;;;;12.17;3.73;;;;;;;;;;5115867;28;20450;-74
2022/02/02 21:49:55;;;;;;;24.03;8.67;;;;;;;;;;5110584;28;20742;-73
2022/02/02 21:52:32;;;;;;;14.63;3.50;;;;;;;;;;5115792;28;20469;-74
2022/02/02 21:55:21;;;;;;;11.80;3.43;;;;;;;;;;5118086;28;20450;-74
2022/02/02 21:57:59;;;;;;;7.77;2.63;;;;;;;;;;5110991;28;20832;-75
2022/02/02 22:09:17;;;;;;;10.17;3.43;;;;;;;;;;5091845;28;20446;-74
2022/02/02 22:14:52;;;;;;;12.80;7.13;;;;;;;;;;5115145;28;20785;-73
2022/02/02 22:20:31;;;;;;;11.83;4.90;;;;;;;;;;5112600;28;20551;-73
2022/02/02 22:23:01;;;;;;;8.80;4.17;;;;;;;;;;5060827;28;20540;-73
2022/02/02 22:28:31;;;;;;;8.40;4.03;;;;;;;;;;5111274;28;20486;-73
2022/02/02 22:33:56;;;;;;;12.63;3.73;;;;;;;;;;5137417;27;20449;-73
2022/02/02 22:39:31;;;;;;;7.87;3.33;;;;;;;;;;5138037;27;20714;-74
2022/02/02 22:42:03;;;;;;;9.23;3.70;;;;;;;;;;5140468;27;20450;-73
2022/02/02 22:44:31;;;;;;;21.70;5.27;;;;;;;;;;5140916;27;20490;-73
2022/02/02 22:47:28;;;;;;;15.23;4.13;;;;;;;;;;5139976;27;20481;-73
2022/02/02 22:49:56;;;;;;;12.60;5.43;;;;;;;;;;5138311;27;20456;-73
2022/02/02 22:55:17;;;;;;;8.53;4.80;;;;;;;;;;5107418;27;20422;-73
2022/02/02 22:57:45;;;;;;;7.30;2.97;;;;;;;;;;5139344;27;20919;-73
2022/02/02 23:00:15;;;;;;;9.60;2.57;;;;;;;;;;5139044;27;20446;-73
2022/02/02 23:03:11;;;;;;;13.07;3.43;;;;;;;;;;5139632;27;20522;-73
2022/02/02 23:05:43;;;;;;;12.93;5.73;;;;;;;;;;5141493;27;20461;-73
2022/02/02 23:08:13;;;;;;;12.77;4.67;;;;;;;;;;5140366;27;20579;-73
2022/02/02 23:10:41;;;;;;;6.57;2.37;;;;;;;;;;5140748;27;20450;-73
2022/02/02 23:13:13;;;;;;;19.17;3.13;;;;;;;;;;5139290;27;20450;-73
2022/02/02 23:15:55;;;;;;;15.07;3.30;;;;;;;;;;5140488;27;20457;-74
2022/02/02 23:18:44;;;;;;;6.97;3.07;;;;;;;;;;5141433;27;20442;-74
2022/02/02 23:21:17;;;;;;;7.37;2.90;;;;;;;;;;5139374;27;20465;-73
2022/02/02 23:24:00;;;;;;;7.77;2.50;;;;;;;;;;5140632;27;20450;-73
2022/02/02 23:26:30;;;;;;;9.83;3.10;;;;;;;;;;5157225;27;20787;-73
2022/02/02 23:29:16;;;;;;;10.10;2.93;;;;;;;;;;5160354;27;20417;-73
2022/02/02 23:31:45;;;;;;;10.00;2.13;;;;;;;;;;5160462;27;20461;-73
2022/02/02 23:34:13;;;;;;;9.67;2.77;;;;;;;;;;5159000;27;20536;-73
2022/02/02 23:36:45;;;;;;;9.03;2.53;;;;;;;;;;5118722;28;20458;-74
2022/02/02 23:39:20;;;;;;;8.57;1.90;;;;;;;;;;5119317;28;20451;-74
2022/02/02 23:42:18;;;;;;;5.87;2.70;;;;;;;;;;5129032;27;20565;-73
2022/02/02 23:44:46;;;;;;;20.10;2.80;;;;;;;;;;5138363;27;20534;-73
2022/02/02 23:47:15;;;;;;;7.40;2.50;;;;;;;;;;5140046;27;20585;-73
2022/02/02 23:49:50;;;;;;;14.40;3.27;;;;;;;;;;5142273;27;20710;-73
2022/02/02 23:52:24;;;;;;;8.40;2.70;;;;;;;;;;5160076;27;20464;-73
2022/02/02 23:54:53;;;;;;;9.43;3.13;;;;;;;;;;5146522;27;20464;-72
2022/02/02 23:57:33;;;;;;;14.40;8.03;;;;;;;;;;5137645;27;20446;-73
